Time;durP1;ratioP1;P1;durP2;ratioP2;P2;SDS_P1;SDS_P2;PMS_P1;PMS_P2;Temp;Humidity;BMP_temperature;BMP_pressure;BME280_temperature;BME280_humidity;BME280_pressure;Samples;Min_cycle;Max_cycle;Signal;HPM_P1;HPM_P2
2022/11/25 00:03:02;;;;;;;439.17;136.00;;;1.50;99.90;;;;;;10460060;28;20093;-85
2022/11/25 00:08:03;;;;;;;375.27;118.03;;;1.50;99.90;;;;;;10448154;28;20072;-84
2022/11/25 00:13:04;;;;;;;364.53;121.57;;;1.60;99.90;;;;;;10473512;28;20399;-83
2022/11/25 00:18:04;;;;;;;411.60;125.77;;;1.60;99.90;;;;;;10468428;28;20750;-84
2022/11/25 00:23:05;;;;;;;449.07;135.70;;;1.60;99.90;;;;;;10474740;28;20153;-84
2022/11/25 00:28:05;;;;;;;398.47;127.13;;;1.60;99.90;;;;;;10480026;28;20035;-85
2022/11/25 00:33:06;;;;;;;392.57;125.27;;;1.60;99.90;;;;;;10439834;28;20392;-85
2022/11/25 00:38:06;;;;;;;566.83;170.50;;;1.60;99.90;;;;;;10469891;28;20033;-84
2022/11/25 00:48:26;;;;;;;464.20;151.90;;;1.60;99.90;;;;;;10462331;28;20492;-86
2022/11/25 00:53:29;;;;;;;621.87;190.57;;;1.60;99.90;;;;;;10476728;28;20036;-84
2022/11/25 00:58:30;;;;;;;621.90;194.97;;;1.60;99.90;;;;;;10472189;28;20513;-83
2022/11/25 01:03:31;;;;;;;726.70;226.17;;;1.70;99.90;;;;;;10460900;28;20028;-85
2022/11/25 01:08:33;;;;;;;922.47;246.77;;;1.60;99.90;;;;;;10479005;28;20074;-84
2022/11/25 01:13:34;;;;;;;819.40;241.50;;;1.60;99.90;;;;;;10465102;28;20408;-84
2022/11/25 01:18:34;;;;;;;912.60;262.17;;;1.70;99.90;;;;;;10458204;28;20032;-84
2022/11/25 01:23:35;;;;;;;739.00;216.93;;;1.60;99.90;;;;;;10464895;28;20033;-84
2022/11/25 01:28:36;;;;;;;733.47;217.30;;;1.70;99.90;;;;;;10475124;28;20091;-84
2022/11/25 01:33:37;;;;;;;763.93;242.63;;;1.70;99.90;;;;;;10462593;28;20075;-85
2022/11/25 01:38:38;;;;;;;583.93;189.80;;;1.70;99.90;;;;;;10463090;28;20111;-84
2022/11/25 01:43:39;;;;;;;611.40;228.27;;;1.70;99.90;;;;;;10473267;28;20056;-84
2022/11/25 01:48:48;;;;;;;497.90;194.43;;;1.70;99.90;;;;;;10464295;28;20029;-84
2022/11/25 01:53:50;;;;;;;497.10;186.77;;;1.70;99.90;;;;;;10454476;28;20043;-85
2022/11/25 01:58:50;;;;;;;477.30;179.33;;;1.70;99.90;;;;;;10490526;28;20028;-84
2022/11/25 02:03:54;;;;;;;529.97;190.23;;;1.70;99.90;;;;;;10470787;28;20020;-84
2022/11/25 02:09:04;;;;;;;516.63;194.60;;;1.70;99.90;;;;;;10481274;28;20033;-86
2022/11/25 02:14:05;;;;;;;472.07;181.83;;;1.80;99.90;;;;;;10471116;28;20040;-87
2022/11/25 02:19:17;;;;;;;509.47;195.17;;;1.80;99.90;;;;;;10476953;28;20029;-84
2022/11/25 02:24:33;;;;;;;499.63;191.27;;;1.90;99.90;;;;;;10470552;28;20443;-85
2022/11/25 02:29:34;;;;;;;462.47;155.13;;;1.80;99.90;;;;;;10464036;28;20044;-87
2022/11/25 02:34:34;;;;;;;466.00;167.67;;;1.90;99.90;;;;;;10476714;28;20041;-87
2022/11/25 02:39:35;;;;;;;529.10;192.37;;;1.90;99.90;;;;;;10471261;28;20028;-83
2022/11/25 02:44:36;;;;;;;551.27;200.13;;;1.90;99.90;;;;;;10487578;28;20052;-85
2022/11/25 02:49:36;;;;;;;513.17;184.37;;;1.90;99.90;;;;;;10465933;28;20109;-84
2022/11/25 02:54:37;;;;;;;486.57;172.43;;;1.90;99.90;;;;;;10462057;28;20143;-84
2022/11/25 02:59:37;;;;;;;449.40;151.13;;;1.90;99.90;;;;;;10442264;28;20606;-84
2022/11/25 03:04:38;;;;;;;499.13;176.93;;;1.90;99.90;;;;;;10467495;28;20036;-84
2022/11/25 03:09:38;;;;;;;443.80;148.63;;;1.90;99.90;;;;;;10425426;28;20775;-85
2022/11/25 03:14:39;;;;;;;431.47;137.07;;;1.90;99.90;;;;;;10443945;28;20021;-85
2022/11/25 03:19:39;;;;;;;480.83;148.40;;;1.90;99.90;;;;;;10444034;28;20065;-85
2022/11/25 03:24:40;;;;;;;434.87;139.67;;;1.90;99.90;;;;;;10443549;28;20033;-86
2022/11/25 03:29:41;;;;;;;463.67;157.10;;;1.90;99.90;;;;;;10444860;28;20033;-86
2022/11/25 03:34:41;;;;;;;445.07;146.90;;;2.00;99.90;;;;;;10442539;28;20472;-84
2022/11/25 03:39:42;;;;;;;468.47;147.87;;;2.00;99.90;;;;;;10458493;28;20055;-84
2022/11/25 03:44:42;;;;;;;485.07;155.60;;;2.00;99.90;;;;;;10444225;28;20057;-84
2022/11/25 03:49:43;;;;;;;485.97;148.53;;;2.00;99.90;;;;;;10443007;28;20041;-86
2022/11/25 03:54:44;;;;;;;521.20;160.17;;;2.10;99.90;;;;;;10443414;28;20056;-86
2022/11/25 03:59:45;;;;;;;527.33;158.03;;;2.10;99.90;;;;;;10443060;28;20036;-85
2022/11/25 04:04:45;;;;;;;574.33;184.70;;;2.10;99.90;;;;;;10441872;28;20032;-82
2022/11/25 04:09:46;;;;;;;507.53;159.17;;;2.10;99.90;;;;;;10431572;28;20485;-84
2022/11/25 04:14:46;;;;;;;518.80;155.17;;;2.10;99.90;;;;;;10416648;28;20358;-84
2022/11/25 04:19:47;;;;;;;473.30;146.53;;;2.10;99.90;;;;;;10441586;28;20028;-84
2022/11/25 04:24:47;;;;;;;505.77;158.00;;;2.10;99.90;;;;;;10454156;28;20426;-84
2022/11/25 04:29:48;;;;;;;546.40;167.40;;;2.10;99.90;;;;;;10456051;28;20037;-85
2022/11/25 04:34:48;;;;;;;545.90;172.13;;;2.10;99.90;;;;;;10476607;28;20040;-84
2022/11/25 04:39:49;;;;;;;585.97;188.03;;;2.20;99.90;;;;;;10467394;28;20399;-83
2022/11/25 04:44:50;;;;;;;526.40;154.97;;;2.20;99.90;;;;;;10478793;28;20040;-89
2022/11/25 04:49:50;;;;;;;492.97;148.07;;;2.20;99.90;;;;;;10459998;28;20120;-86
2022/11/25 04:54:51;;;;;;;541.53;166.07;;;2.20;99.90;;;;;;10451088;28;20029;-84
2022/11/25 04:59:52;;;;;;;478.50;149.40;;;2.20;99.90;;;;;;10444254;28;20118;-85
2022/11/25 05:04:54;;;;;;;490.20;153.77;;;2.20;99.90;;;;;;10442283;28;20061;-84
2022/11/25 05:09:55;;;;;;;589.90;171.90;;;2.20;99.90;;;;;;10456853;28;20509;-83
2022/11/25 05:14:56;;;;;;;588.87;178.57;;;2.20;99.90;;;;;;10455388;28;20496;-86
2022/11/25 05:19:57;;;;;;;575.13;177.67;;;2.30;99.90;;;;;;10463403;28;20037;-84
2022/11/25 05:24:58;;;;;;;584.33;170.70;;;2.30;99.90;;;;;;10458669;28;20103;-85
2022/11/25 05:29:59;;;;;;;498.30;157.13;;;2.30;99.90;;;;;;10453097;28;20382;-82
2022/11/25 05:34:59;;;;;;;533.03;153.07;;;2.30;99.90;;;;;;10469679;28;20037;-83
2022/11/25 05:40:00;;;;;;;615.30;174.93;;;2.30;99.90;;;;;;10482871;28;20037;-83
2022/11/25 05:45:01;;;;;;;534.27;151.13;;;2.40;99.90;;;;;;10485620;28;20064;-82
2022/11/25 05:50:01;;;;;;;466.67;135.77;;;2.40;99.90;;;;;;10489631;28;20024;-83
2022/11/25 05:55:02;;;;;;;612.23;161.03;;;2.30;99.90;;;;;;10489164;28;20056;-83
2022/11/25 06:00:04;;;;;;;442.83;129.30;;;2.30;99.90;;;;;;10455688;28;20025;-84
2022/11/25 06:05:05;;;;;;;644.20;163.77;;;2.30;99.90;;;;;;10489926;28;20020;-83
2022/11/25 06:10:06;;;;;;;465.30;135.00;;;2.30;99.90;;;;;;10484462;28;20032;-84
2022/11/25 06:15:07;;;;;;;785.90;205.70;;;2.20;99.90;;;;;;10480628;28;20020;-82
2022/11/25 06:20:08;;;;;;;564.23;167.90;;;2.20;99.90;;;;;;10474794;28;20013;-82
2022/11/25 06:25:08;;;;;;;863.13;247.03;;;2.20;99.90;;;;;;10487861;28;20495;-82
2022/11/25 06:30:11;;;;;;;766.80;237.03;;;2.20;99.90;;;;;;10488111;28;20081;-83
2022/11/25 06:35:12;;;;;;;721.73;243.40;;;2.20;99.90;;;;;;10487811;28;20028;-82
2022/11/25 06:40:13;;;;;;;797.80;251.90;;;2.30;99.90;;;;;;10485420;28;20029;-83
2022/11/25 06:45:13;;;;;;;742.47;221.27;;;2.30;99.90;;;;;;10466659;28;20403;-82
2022/11/25 06:50:14;;;;;;;783.63;235.07;;;2.30;99.90;;;;;;10487415;28;20468;-82
2022/11/25 06:55:15;;;;;;;1070.77;288.70;;;2.30;99.90;;;;;;10478239;28;20114;-82
2022/11/25 07:00:15;;;;;;;875.13;261.40;;;2.40;99.90;;;;;;10482107;28;20468;-84
2022/11/25 07:05:16;;;;;;;1016.17;275.30;;;2.40;99.90;;;;;;10486448;28;20146;-83
2022/11/25 07:10:17;;;;;;;573.37;191.53;;;2.50;99.90;;;;;;10486219;28;20021;-82
2022/11/25 07:15:17;;;;;;;733.47;226.93;;;2.50;99.90;;;;;;10486423;28;20037;-81
2022/11/25 07:20:18;;;;;;;950.47;257.83;;;2.60;99.90;;;;;;10485843;28;20070;-81
2022/11/25 07:25:18;;;;;;;647.33;180.27;;;2.60;99.90;;;;;;10468142;28;20099;-81
2022/11/25 07:30:19;;;;;;;955.93;234.97;;;2.60;99.90;;;;;;10467872;28;20028;-82
2022/11/25 07:35:19;;;;;;;985.97;253.93;;;2.60;99.90;;;;;;10484911;28;20077;-81
2022/11/25 07:40:20;;;;;;;922.20;258.63;;;2.60;99.90;;;;;;10467870;28;20604;-82
2022/11/25 07:45:23;;;;;;;833.00;254.53;;;2.60;99.90;;;;;;10485164;28;20492;-82
2022/11/25 07:50:23;;;;;;;990.30;267.90;;;2.70;99.90;;;;;;10467132;28;20079;-81
2022/11/25 07:55:24;;;;;;;1141.77;290.33;;;2.80;99.90;;;;;;10484836;28;20047;-81
2022/11/25 08:00:24;;;;;;;833.70;246.00;;;2.80;99.90;;;;;;10485710;28;20024;-81
2022/11/25 08:05:25;;;;;;;571.93;177.47;;;2.90;99.90;;;;;;10485098;28;20670;-81
2022/11/25 08:10:25;;;;;;;629.50;203.43;;;3.00;99.90;;;;;;10485627;28;20727;-80
2022/11/25 08:15:27;;;;;;;598.37;193.10;;;3.10;99.90;;;;;;10431726;28;20041;-81
2022/11/25 08:20:27;;;;;;;748.27;244.20;;;3.20;99.90;;;;;;10463371;28;20029;-81
2022/11/25 08:25:30;;;;;;;757.53;248.87;;;3.30;99.90;;;;;;10470014;28;20021;-81
2022/11/25 08:30:31;;;;;;;667.07;220.20;;;3.40;99.90;;;;;;10471517;28;20049;-80
2022/11/25 08:35:36;;;;;;;592.70;220.17;;;3.40;99.90;;;;;;10481440;28;20104;-80
2022/11/25 08:40:37;;;;;;;557.70;225.90;;;3.50;99.90;;;;;;10483794;28;20024;-80
2022/11/25 08:45:38;;;;;;;605.17;233.90;;;3.60;99.90;;;;;;10483092;28;20044;-80
2022/11/25 08:50:43;;;;;;;574.03;225.87;;;3.70;99.90;;;;;;10477657;28;20366;-80
2022/11/25 08:55:43;;;;;;;510.40;201.17;;;3.80;99.90;;;;;;10492122;28;20119;-80
2022/11/25 09:00:44;;;;;;;442.87;179.07;;;3.90;99.90;;;;;;10491371;28;20035;-81
2022/11/25 09:05:52;;;;;;;500.10;178.13;;;3.90;99.90;;;;;;10491203;28;20032;-80
2022/11/25 09:10:52;;;;;;;459.67;174.70;;;4.00;99.90;;;;;;10485592;28;20040;-80
2022/11/25 09:15:53;;;;;;;434.43;163.70;;;4.20;99.90;;;;;;10484802;28;20033;-81
2022/11/25 09:20:54;;;;;;;414.97;161.47;;;4.30;99.90;;;;;;10485758;28;20111;-81
2022/11/25 09:25:57;;;;;;;383.60;153.30;;;4.30;99.90;;;;;;10482433;28;20024;-80
2022/11/25 09:30:57;;;;;;;372.17;138.47;;;4.40;99.90;;;;;;10490739;28;20032;-80
2022/11/25 09:36:00;;;;;;;368.97;142.97;;;4.50;99.90;;;;;;10490102;28;20020;-81
2022/11/25 09:46:40;;;;;;;411.57;162.83;;;4.70;99.90;;;;;;10490287;28;20720;-81
2022/11/25 09:47:07;;;;;;;372.83;147.43;;;4.80;99.90;;;;;;10489909;28;20067;-80
2022/11/25 09:52:39;;;;;;;659.87;316.70;;;4.90;99.90;;;;;;10488965;28;20044;-80
2022/11/25 09:57:48;;;;;;;604.27;290.23;;;5.00;99.90;;;;;;10455046;28;20051;-80
2022/11/25 10:03:05;;;;;;;442.67;202.53;;;5.10;99.90;;;;;;10488666;28;20101;-80
2022/11/25 10:08:22;;;;;;;384.33;175.43;;;5.10;99.90;;;;;;10489556;28;20037;-80
2022/11/25 10:13:45;;;;;;;497.10;242.13;;;5.20;99.90;;;;;;10488514;28;20035;-80
2022/11/25 10:19:01;;;;;;;536.63;263.27;;;5.30;99.90;;;;;;10489349;28;20111;-80
2022/11/25 10:24:03;;;;;;;409.05;180.30;;;5.30;99.90;;;;;;10456039;28;20119;-80
2022/11/25 10:29:13;;;;;;;334.67;143.73;;;5.40;99.90;;;;;;10488225;28;20024;-80
2022/11/25 10:34:30;;;;;;;306.37;127.40;;;5.50;99.90;;;;;;10487383;28;20103;-79
2022/11/25 10:39:33;;;;;;;308.43;120.20;;;5.60;99.90;;;;;;10487399;28;20055;-81
2022/11/25 10:44:36;;;;;;;267.20;111.33;;;5.60;99.90;;;;;;10486415;28;20102;-80
2022/11/25 10:50:14;;;;;;;245.47;106.90;;;5.70;99.90;;;;;;10470056;28;20025;-80
2022/11/25 10:55:20;;;;;;;231.20;102.10;;;5.80;99.90;;;;;;10481613;28;20044;-80
2022/11/25 11:00:36;;;;;;;217.83;95.17;;;5.90;99.90;;;;;;10468443;28;20111;-80
2022/11/25 11:05:44;;;;;;;212.75;97.10;;;5.90;99.90;;;;;;10486651;28;20036;-80
2022/11/25 11:10:46;;;;;;;186.20;85.00;;;5.90;99.90;;;;;;10467691;28;20136;-80
2022/11/25 11:15:47;;;;;;;201.60;91.60;;;6.00;99.90;;;;;;10485481;28;20468;-80
2022/11/25 11:20:50;;;;;;;160.67;76.77;;;6.10;99.90;;;;;;10481582;28;20507;-83
2022/11/25 11:25:55;;;;;;;156.77;77.10;;;6.30;99.90;;;;;;10475827;28;20025;-83
2022/11/25 11:31:18;;;;;;;140.27;65.27;;;6.30;99.90;;;;;;10485521;28;20110;-83
2022/11/25 11:36:34;;;;;;;141.53;64.00;;;6.30;99.90;;;;;;10484923;28;20028;-80
2022/11/25 11:42:06;;;;;;;154.33;67.70;;;6.20;99.90;;;;;;10484991;28;20032;-82
2022/11/25 11:47:36;;;;;;;161.37;73.03;;;6.20;99.90;;;;;;10484576;28;20584;-83
2022/11/25 11:52:45;;;;;;;165.90;82.73;;;6.20;99.90;;;;;;10485422;28;20028;-80
2022/11/25 11:58:12;;;;;;;182.03;83.77;;;6.10;99.90;;;;;;10485034;28;20112;-81
2022/11/25 12:03:23;;;;;;;193.73;84.13;;;6.10;99.90;;;;;;10484628;28;20055;-81
2022/11/25 12:08:33;;;;;;;167.10;78.00;;;6.10;99.90;;;;;;10485133;28;20369;-83
2022/11/25 12:13:42;;;;;;;170.07;79.87;;;6.20;99.90;;;;;;10462399;28;20036;-80
2022/11/25 12:19:01;;;;;;;190.90;84.30;;;6.30;99.90;;;;;;10433512;28;20028;-82
2022/11/25 12:24:13;;;;;;;173.63;83.53;;;6.30;99.90;;;;;;10468685;28;20028;-81
2022/11/25 12:29:34;;;;;;;204.60;86.93;;;6.20;99.90;;;;;;10482994;28;20028;-80
2022/11/25 12:35:00;;;;;;;252.43;105.93;;;6.20;99.90;;;;;;10472191;28;20266;-81
2022/11/25 12:40:13;;;;;;;298.90;130.40;;;6.10;99.90;;;;;;10482946;28;20113;-84
2022/11/25 12:45:25;;;;;;;309.97;134.53;;;6.10;99.90;;;;;;10483747;28;20048;-81
2022/11/25 12:51:15;;;;;;;246.80;105.13;;;6.10;99.90;;;;;;10468923;28;20035;-80
2022/11/25 12:56:23;;;;;;;304.03;124.30;;;6.10;99.90;;;;;;10382423;28;20551;-81
2022/11/25 13:01:47;;;;;;;286.47;116.40;;;6.20;99.90;;;;;;10483028;28;20112;-81
2022/11/25 13:07:28;;;;;;;226.83;100.30;;;6.30;99.90;;;;;;10482735;28;20033;-80
2022/11/25 13:12:47;;;;;;;207.60;89.33;;;6.40;99.90;;;;;;10385113;28;20850;-80
2022/11/25 13:17:50;;;;;;;182.20;78.20;;;6.40;99.90;;;;;;10476335;28;20048;-83
2022/11/25 13:23:24;;;;;;;201.97;87.53;;;6.40;99.90;;;;;;10468097;28;20027;-81
2022/11/25 13:28:36;;;;;;;244.47;98.27;;;6.30;99.90;;;;;;10466627;28;20040;-83
2022/11/25 13:33:42;;;;;;;187.80;81.20;;;6.30;99.90;;;;;;10484825;28;20037;-82
2022/11/25 13:38:49;;;;;;;217.63;87.40;;;6.40;99.90;;;;;;10490032;28;20085;-82
2022/11/25 13:43:52;;;;;;;164.27;70.13;;;6.40;99.90;;;;;;10489482;28;20126;-81
2022/11/25 13:48:53;;;;;;;202.70;89.93;;;6.40;99.90;;;;;;10480292;28;20380;-81
2022/11/25 13:54:00;;;;;;;205.53;91.10;;;6.30;99.90;;;;;;10489336;28;20051;-81
2022/11/25 13:59:09;;;;;;;259.57;113.77;;;6.30;99.90;;;;;;10479146;28;20037;-82
2022/11/25 14:04:12;;;;;;;232.30;99.17;;;6.20;99.90;;;;;;10456692;28;20517;-81
2022/11/25 14:09:34;;;;;;;205.83;88.57;;;6.20;99.90;;;;;;10480145;28;20035;-80
2022/11/25 14:15:16;;;;;;;329.30;144.43;;;6.20;99.90;;;;;;10480090;28;20029;-81
2022/11/25 14:20:35;;;;;;;318.13;129.80;;;6.20;99.90;;;;;;10422433;28;20048;-81
2022/11/25 14:26:25;;;;;;;242.77;105.20;;;6.20;99.90;;;;;;10463061;28;20045;-83
2022/11/25 14:31:45;;;;;;;265.50;105.73;;;6.00;99.90;;;;;;10448352;28;20104;-80
2022/11/25 14:36:57;;;;;;;267.13;99.60;;;6.00;99.90;;;;;;10468311;28;20158;-80
2022/11/25 14:42:11;;;;;;;238.47;86.10;;;5.90;99.90;;;;;;10444742;28;20119;-81
2022/11/25 14:47:11;;;;;;;280.87;110.47;;;5.80;99.90;;;;;;10464376;28;20100;-80
2022/11/25 14:52:22;;;;;;;300.17;113.47;;;5.70;99.90;;;;;;10460698;28;20472;-82
2022/11/25 14:57:25;;;;;;;319.83;121.33;;;5.70;99.90;;;;;;10480749;28;20060;-83
2022/11/25 15:02:33;;;;;;;297.57;110.97;;;5.60;99.90;;;;;;10467685;28;20029;-80
2022/11/25 15:07:34;;;;;;;329.00;133.70;;;5.60;99.90;;;;;;10474869;28;20582;-82
2022/11/25 15:12:34;;;;;;;379.37;162.50;;;5.50;99.90;;;;;;10446760;28;20116;-79
2022/11/25 15:17:38;;;;;;;377.53;156.37;;;5.40;99.90;;;;;;10469163;28;20037;-80
2022/11/25 15:22:44;;;;;;;374.57;169.20;;;5.40;99.90;;;;;;10462381;28;20041;-81
2022/11/25 15:27:46;;;;;;;;;;;5.40;99.90;;;;;;10483027;28;20534;-79
2022/11/25 15:32:48;;;;;;;378.23;139.97;;;5.40;99.90;;;;;;10458551;28;19916;-80
2022/11/25 15:37:49;;;;;;;379.93;146.53;;;5.40;99.90;;;;;;10485292;28;20028;-81
2022/11/25 15:42:49;;;;;;;359.90;144.03;;;5.40;99.90;;;;;;10485169;28;20573;-80
2022/11/25 15:47:50;;;;;;;388.30;146.63;;;5.30;99.90;;;;;;10473341;28;20139;-80
2022/11/25 15:52:54;;;;;;;314.77;123.97;;;5.20;99.90;;;;;;10466303;28;20476;-81
2022/11/25 15:58:20;;;;;;;320.37;125.13;;;5.30;99.90;;;;;;10481368;28;20035;-79
2022/11/25 16:03:22;;;;;;;395.35;162.65;;;5.30;99.90;;;;;;10443180;28;20048;-82
2022/11/25 16:08:35;;;;;;;386.67;148.10;;;5.30;99.90;;;;;;10484373;28;20089;-80
2022/11/25 16:13:37;;;;;;;420.47;167.33;;;5.30;99.90;;;;;;10481028;28;20136;-83
2022/11/25 16:19:11;;;;;;;374.27;136.57;;;5.30;99.90;;;;;;10473771;28;20102;-80
2022/11/25 16:24:32;;;;;;;335.90;115.67;;;5.20;99.90;;;;;;10460777;28;20028;-81
2022/11/25 16:29:35;;;;;;;327.70;116.73;;;5.30;99.90;;;;;;10459979;28;20032;-82
2022/11/25 16:34:35;;;;;;;387.20;141.60;;;5.20;99.90;;;;;;10469563;28;20040;-81
2022/11/25 16:39:37;;;;;;;375.97;152.37;;;5.10;99.90;;;;;;10451358;28;20021;-79
2022/11/25 16:44:37;;;;;;;481.20;226.70;;;5.10;99.90;;;;;;10452073;28;20051;-82
2022/11/25 16:49:38;;;;;;;459.00;221.87;;;5.10;99.90;;;;;;10458172;28;20031;-81
2022/11/25 16:54:39;;;;;;;507.93;227.03;;;5.10;99.90;;;;;;10454325;28;20041;-79
2022/11/25 16:59:43;;;;;;;473.97;196.30;;;5.10;99.90;;;;;;10441207;28;20039;-83
2022/11/25 17:04:44;;;;;;;358.63;155.90;;;5.10;99.90;;;;;;10460589;28;20017;-80
2022/11/25 17:09:45;;;;;;;493.97;178.07;;;5.10;99.90;;;;;;10459989;28;20039;-80
2022/11/25 17:14:47;;;;;;;431.33;155.33;;;5.10;99.90;;;;;;10464059;28;20052;-81
2022/11/25 17:19:48;;;;;;;396.67;148.20;;;5.00;99.90;;;;;;10454248;28;20062;-81
2022/11/25 17:24:48;;;;;;;394.33;144.63;;;5.00;99.90;;;;;;10457515;28;20048;-79
2022/11/25 17:29:50;;;;;;;441.53;189.83;;;5.00;99.90;;;;;;10476483;28;20381;-81
2022/11/25 17:34:50;;;;;;;650.30;304.40;;;5.00;99.90;;;;;;10473089;28;20033;-80
2022/11/25 17:39:52;;;;;;;893.13;427.23;;;5.00;99.90;;;;;;10484253;28;20035;-81
2022/11/25 17:44:53;;;;;;;725.43;336.27;;;5.00;99.90;;;;;;10461878;28;20135;-81
2022/11/25 17:49:54;;;;;;;638.93;291.37;;;5.10;99.90;;;;;;10470776;28;20378;-81
2022/11/25 17:54:54;;;;;;;788.70;335.73;;;5.10;99.90;;;;;;10448862;28;20041;-79
2022/11/25 17:59:55;;;;;;;632.23;284.73;;;5.10;99.90;;;;;;10486263;28;20391;-80
2022/11/25 18:04:55;;;;;;;738.83;318.90;;;5.10;99.90;;;;;;10460528;28;20032;-80
2022/11/25 18:09:56;;;;;;;732.90;308.93;;;5.20;99.90;;;;;;10469351;28;20040;-80
2022/11/25 18:14:56;;;;;;;661.40;285.37;;;5.10;99.90;;;;;;10449707;28;20036;-83
2022/11/25 18:19:57;;;;;;;706.80;348.13;;;5.20;99.90;;;;;;10449161;28;20043;-82
2022/11/25 18:24:57;;;;;;;659.63;300.23;;;5.20;99.90;;;;;;10458865;28;20044;-80
2022/11/25 18:30:00;;;;;;;721.30;324.77;;;5.20;99.90;;;;;;10479398;28;20063;-80
2022/11/25 18:35:00;;;;;;;632.17;287.50;;;5.10;99.90;;;;;;10441450;28;20275;-79
2022/11/25 18:40:01;;;;;;;715.97;311.73;;;5.20;99.90;;;;;;10460340;28;20020;-80
2022/11/25 18:45:02;;;;;;;884.50;368.47;;;5.10;99.90;;;;;;10462600;28;20126;-79
2022/11/25 18:50:13;;;;;;;912.50;392.23;;;5.10;99.90;;;;;;10454115;28;20063;-80
2022/11/25 18:55:16;;;;;;;756.60;346.47;;;5.10;99.90;;;;;;10468772;28;20044;-80
2022/11/25 19:00:23;;;;;;;749.57;331.13;;;5.10;99.90;;;;;;10464379;28;20040;-80
2022/11/25 19:05:28;;;;;;;761.27;315.87;;;5.10;99.90;;;;;;10461975;28;20653;-81
2022/11/25 19:10:34;;;;;;;730.30;319.53;;;5.10;99.90;;;;;;10445654;28;20585;-80
2022/11/25 19:15:36;;;;;;;890.10;363.88;;;5.10;99.90;;;;;;10454824;28;20028;-80
2022/11/25 19:20:36;;;;;;;906.97;358.30;;;5.10;99.90;;;;;;10457655;28;20048;-81
2022/11/25 19:25:37;;;;;;;771.53;340.47;;;5.00;99.90;;;;;;10473307;28;20023;-80
2022/11/25 19:30:38;;;;;;;981.03;383.57;;;5.00;99.90;;;;;;10460773;28;20029;-81
2022/11/25 19:35:38;;;;;;;650.17;283.80;;;5.10;99.90;;;;;;10460750;28;20028;-81
2022/11/25 19:40:39;;;;;;;635.17;264.37;;;5.00;99.90;;;;;;10481869;28;20498;-83
2022/11/25 19:45:39;;;;;;;501.60;213.67;;;5.10;99.90;;;;;;10455148;28;20124;-80
2022/11/25 19:50:43;;;;;;;630.07;254.63;;;5.00;99.90;;;;;;10446512;28;20078;-80
2022/11/25 19:55:44;;;;;;;550.83;227.13;;;5.00;99.90;;;;;;10457962;28;20078;-80
2022/11/25 20:00:48;;;;;;;546.60;224.17;;;5.00;99.90;;;;;;10446623;28;20469;-81
2022/11/25 20:05:51;;;;;;;498.13;200.27;;;4.90;99.90;;;;;;10450726;28;20040;-79
2022/11/25 20:10:53;;;;;;;475.63;186.33;;;5.00;99.90;;;;;;10448685;28;20037;-80
2022/11/25 20:15:55;;;;;;;481.83;182.47;;;5.00;99.90;;;;;;10462732;28;20460;-82
2022/11/25 20:21:05;;;;;;;481.33;190.33;;;5.00;99.90;;;;;;10441438;28;20021;-80
2022/11/25 20:26:05;;;;;;;459.87;187.83;;;5.00;99.90;;;;;;10467671;28;20043;-80
2022/11/25 20:31:10;;;;;;;415.43;173.57;;;5.00;99.90;;;;;;10445543;28;20060;-80
2022/11/25 20:36:15;;;;;;;427.70;175.37;;;5.10;99.90;;;;;;10451891;28;20039;-82
2022/11/25 20:41:16;;;;;;;400.20;158.10;;;5.10;99.90;;;;;;10483031;28;20377;-80
2022/11/25 20:46:20;;;;;;;515.70;198.10;;;5.10;99.90;;;;;;10467174;28;20153;-82
2022/11/25 20:51:22;;;;;;;435.70;166.37;;;5.00;99.90;;;;;;10458311;28;20068;-81
2022/11/25 20:56:24;;;;;;;422.73;155.87;;;5.00;99.90;;;;;;10456180;28;20037;-80
2022/11/25 21:01:25;;;;;;;524.30;187.20;;;4.80;99.90;;;;;;10454687;28;20033;-83
2022/11/25 21:06:28;;;;;;;503.43;188.03;;;4.70;99.90;;;;;;10461306;28;20044;-81
2022/11/25 21:11:31;;;;;;;977.90;316.63;;;4.60;99.90;;;;;;10452890;28;20139;-79
2022/11/25 21:16:32;;;;;;;572.53;227.07;;;4.50;99.90;;;;;;10465030;28;20043;-79
2022/11/25 21:21:35;;;;;;;665.43;241.00;;;4.40;99.90;;;;;;10455221;28;20523;-79
2022/11/25 21:26:36;;;;;;;554.90;228.93;;;4.40;99.90;;;;;;10462062;28;20432;-80
2022/11/25 21:31:36;;;;;;;805.23;276.27;;;4.30;99.90;;;;;;10441488;28;20043;-80
2022/11/25 21:36:38;;;;;;;501.07;198.80;;;4.30;99.90;;;;;;10455358;28;20380;-84
2022/11/25 21:41:39;;;;;;;548.43;216.03;;;4.20;99.90;;;;;;10463420;28;20395;-84
2022/11/25 21:46:39;;;;;;;856.07;273.53;;;4.30;99.90;;;;;;10467747;28;20139;-81
2022/11/25 21:51:40;;;;;;;530.80;198.83;;;4.20;99.90;;;;;;10435241;28;20051;-80
2022/11/25 21:56:40;;;;;;;747.13;253.87;;;4.10;99.90;;;;;;10454333;28;20029;-80
2022/11/25 22:01:41;;;;;;;889.17;277.40;;;4.10;99.90;;;;;;10461820;28;20040;-80
2022/11/25 22:06:42;;;;;;;619.07;241.33;;;4.10;99.90;;;;;;10459814;28;20033;-80
2022/11/25 22:11:46;;;;;;;864.00;297.37;;;4.00;99.90;;;;;;10452723;28;20391;-80
2022/11/25 22:16:47;;;;;;;696.90;267.40;;;4.00;99.90;;;;;;10463893;28;20028;-83
2022/11/25 22:21:48;;;;;;;741.10;303.10;;;4.10;99.90;;;;;;10451672;28;20025;-80
2022/11/25 22:26:50;;;;;;;1865.40;488.27;;;4.20;99.90;;;;;;10463758;28;20044;-80
2022/11/25 22:31:51;;;;;;;1999.90;524.83;;;4.20;99.90;;;;;;10474895;28;20423;-80
2022/11/25 22:36:51;;;;;;;1999.90;483.70;;;4.20;99.90;;;;;;10474276;28;20086;-80
2022/11/25 22:42:04;;;;;;;1115.10;390.67;;;4.20;99.90;;;;;;10463201;28;20045;-80
2022/11/25 22:47:05;;;;;;;1419.10;450.63;;;4.20;99.90;;;;;;10470153;28;20060;-80
2022/11/25 22:52:16;;;;;;;885.67;343.87;;;4.20;99.90;;;;;;10471254;28;20040;-81
2022/11/25 22:57:17;;;;;;;535.10;228.50;;;4.10;99.90;;;;;;10460541;28;20040;-81
2022/11/25 23:02:27;;;;;;;653.83;252.33;;;4.20;99.90;;;;;;10480046;28;20032;-80
2022/11/25 23:07:28;;;;;;;469.43;194.80;;;4.20;99.90;;;;;;10473154;28;20027;-81
2022/11/25 23:12:28;;;;;;;623.27;238.10;;;4.20;99.90;;;;;;10472959;28;20515;-80
2022/11/25 23:17:29;;;;;;;805.30;249.87;;;4.10;99.90;;;;;;10472214;28;20111;-80
2022/11/25 23:22:29;;;;;;;1459.87;331.40;;;4.00;99.90;;;;;;10479134;28;20033;-81
2022/11/25 23:27:30;;;;;;;807.43;228.03;;;3.90;99.90;;;;;;10474043;28;20032;-80
2022/11/25 23:32:30;;;;;;;789.17;238.80;;;3.70;99.90;;;;;;10472784;28;20480;-81
2022/11/25 23:37:31;;;;;;;1716.63;389.80;;;3.60;99.90;;;;;;10445442;28;20025;-80
2022/11/25 23:42:32;;;;;;;1302.83;322.67;;;3.40;99.90;;;;;;10481698;28;20046;-80
2022/11/25 23:47:32;;;;;;;1134.23;292.20;;;3.40;99.90;;;;;;10471937;28;20056;-83
2022/11/25 23:52:33;;;;;;;1001.43;278.40;;;3.30;99.90;;;;;;10471576;28;20081;-79
2022/11/25 23:57:33;;;;;;;721.13;232.80;;;3.30;99.90;;;;;;10449847;28;20025;-79
